createdAt,value
2023-01-01T00:00:54.027Z,10.40
2023-01-01T00:01:53.851Z,10.40
2023-01-01T00:02:54.940Z,10.70
2023-01-01T00:03:53.958Z,11.00
2023-01-01T00:04:53.849Z,10.10
2023-01-01T00:05:53.750Z,10.10
2023-01-01T00:06:55.880Z,10.00
2023-01-01T00:07:53.765Z,10.20
2023-01-01T00:08:53.832Z,10.90
2023-01-01T00:09:53.699Z,10.20
2023-01-01T00:10:53.861Z,10.90
2023-01-01T00:11:53.680Z,10.80
2023-01-01T00:12:53.791Z,11.00
2023-01-01T00:13:53.687Z,10.70
2023-01-01T00:14:53.721Z,10.90
2023-01-01T00:15:53.620Z,10.60
2023-01-01T00:16:53.793Z,9.90
2023-01-01T00:17:53.605Z,10.70
2023-01-01T00:18:53.613Z,10.10
2023-01-01T00:19:53.582Z,9.80
2023-01-01T00:20:53.732Z,10.30
2023-01-01T00:21:53.543Z,11.20
2023-01-01T00:22:56.531Z,10.60
2023-01-01T00:23:53.510Z,10.50
2023-01-01T00:24:53.602Z,11.00
2023-01-01T00:25:53.518Z,10.10
2023-01-01T00:26:53.642Z,10.80
2023-01-01T00:27:53.468Z,10.70
2023-01-01T00:28:53.568Z,10.80
2023-01-01T00:29:53.455Z,10.80
2023-01-01T00:30:53.509Z,10.10
2023-01-01T00:31:53.472Z,10.60
2023-01-01T00:32:54.711Z,10.90
2023-01-01T00:33:53.368Z,10.40
2023-01-01T00:34:53.480Z,10.30
2023-01-01T00:35:53.366Z,10.60
2023-01-01T00:36:55.506Z,10.70
2023-01-01T00:37:53.354Z,10.30
2023-01-01T00:38:53.462Z,11.10
2023-01-01T00:39:53.307Z,10.90
2023-01-01T00:40:54.409Z,10.70
2023-01-01T00:41:53.279Z,10.90
2023-01-01T00:42:54.346Z,11.10
2023-01-01T00:43:53.281Z,11.10
2023-01-01T00:44:53.349Z,11.10
2023-01-01T00:45:53.245Z,10.90
2023-01-01T00:46:53.388Z,10.70
2023-01-01T00:47:53.194Z,11.60
2023-01-01T00:48:53.326Z,11.60
2023-01-01T00:49:53.200Z,11.70
2023-01-01T00:50:53.261Z,11.90
2023-01-01T00:51:53.147Z,13.10
2023-01-01T00:52:53.297Z,12.20
2023-01-01T00:53:53.125Z,13.30
2023-01-01T00:54:53.226Z,11.40
2023-01-01T00:55:53.123Z,11.30
2023-01-01T00:56:53.277Z,11.80
2023-01-01T00:57:53.076Z,12.10
2023-01-01T00:59:00.774Z,12.60
2023-01-01T00:59:54.038Z,12.90
2023-01-01T01:00:53.168Z,11.70
2023-01-01T01:01:53.092Z,12.10
2023-01-01T01:02:53.199Z,12.80
2023-01-01T01:03:52.985Z,12.50
2023-01-01T01:04:55.198Z,12.10
2023-01-01T01:05:52.966Z,12.20
2023-01-01T01:06:53.146Z,12.40
2023-01-01T01:07:52.955Z,12.20
2023-01-01T01:09:14.054Z,12.60
2023-01-01T01:09:52.909Z,12.30
2023-01-01T01:10:52.976Z,11.30
2023-01-01T01:11:52.884Z,11.30
2023-01-01T01:12:53.893Z,11.50
2023-01-01T01:13:52.919Z,11.80
2023-01-01T01:14:52.847Z,11.40
2023-01-01T01:15:56.386Z,11.40
2023-01-01T01:16:52.854Z,11.60
2023-01-01T01:17:52.921Z,11.50
2023-01-01T01:18:52.805Z,11.60
2023-01-01T01:19:52.939Z,11.70
2023-01-01T01:20:52.765Z,11.80
2023-01-01T01:21:53.776Z,11.60
2023-01-01T01:22:52.740Z,11.50
2023-01-01T01:23:52.784Z,11.50
2023-01-01T01:24:52.739Z,11.10
2023-01-01T01:25:52.834Z,10.90
2023-01-01T01:26:52.684Z,11.40
2023-01-01T01:28:14.786Z,11.60
2023-01-01T01:28:52.687Z,11.50
2023-01-01T01:29:52.696Z,11.60
2023-01-01T01:30:52.702Z,12.10
2023-01-01T01:31:52.737Z,11.30
2023-01-01T01:32:52.603Z,11.60
2023-01-01T01:33:52.667Z,11.50
2023-01-01T01:34:52.583Z,11.30
2023-01-01T01:35:52.700Z,11.40
2023-01-01T01:36:52.571Z,11.70
2023-01-01T01:37:52.732Z,12.10
2023-01-01T01:38:52.530Z,11.80
2023-01-01T01:39:54.217Z,11.90
2023-01-01T01:40:52.519Z,11.50
2023-01-01T01:41:52.605Z,11.70
2023-01-01T01:42:52.495Z,11.50
2023-01-01T01:43:54.636Z,11.50
2023-01-01T01:44:52.446Z,11.70
2023-01-01T01:45:52.582Z,11.20
2023-01-01T01:46:52.423Z,11.70
2023-01-01T01:47:52.615Z,11.90
2023-01-01T01:48:52.422Z,11.70
2023-01-01T01:50:13.532Z,12.00
2023-01-01T01:50:52.371Z,11.60
2023-01-01T01:51:52.483Z,11.20
2023-01-01T01:52:52.355Z,11.70
2023-01-01T01:53:52.425Z,11.10
2023-01-01T01:54:52.337Z,11.00
2023-01-01T01:55:53.482Z,11.00
2023-01-01T01:56:52.292Z,12.00
2023-01-01T01:57:52.499Z,11.00
2023-01-01T01:58:52.266Z,11.50
2023-01-01T01:59:52.323Z,10.80
2023-01-01T02:00:52.274Z,11.00
2023-01-01T02:02:15.477Z,10.60
2023-01-01T02:02:52.245Z,11.10
2023-01-01T02:03:52.291Z,11.00
2023-01-01T02:04:52.181Z,11.00
2023-01-01T02:05:52.334Z,11.80
2023-01-01T02:06:52.172Z,11.30
2023-01-01T02:09:01.652Z,10.60
2023-01-01T02:10:01.430Z,11.20
2023-01-01T02:11:01.589Z,11.70
2023-01-01T02:12:01.429Z,11.20
2023-01-01T02:13:01.626Z,11.10
2023-01-01T02:14:01.381Z,11.70
2023-01-01T02:15:01.449Z,11.40
2023-01-01T02:16:01.398Z,11.30
2023-01-01T02:17:01.456Z,10.70
2023-01-01T02:18:01.347Z,10.40
2023-01-01T02:19:01.427Z,10.70
2023-01-01T02:20:01.299Z,10.10
2023-01-01T02:21:01.450Z,10.30
2023-01-01T02:22:01.277Z,10.60
2023-01-01T02:23:04.461Z,11.00
2023-01-01T02:24:01.271Z,10.80
2023-01-01T02:25:01.320Z,11.70
2023-01-01T02:26:01.223Z,11.00
2023-01-01T02:27:01.368Z,10.40
2023-01-01T02:28:01.210Z,10.70
2023-01-01T02:29:01.308Z,10.60
2023-01-01T02:30:01.197Z,10.20
2023-01-01T02:31:03.349Z,10.60
2023-01-01T02:32:01.167Z,9.20
2023-01-01T02:33:01.146Z,8.50
2023-01-01T02:34:01.128Z,9.50
2023-01-01T02:35:01.197Z,9.80
2023-01-01T02:36:01.119Z,9.90
2023-01-01T02:37:03.228Z,10.40
2023-01-01T02:38:01.085Z,11.70
2023-01-01T02:39:01.180Z,11.70
2023-01-01T02:40:01.048Z,11.40
2023-01-01T02:41:01.111Z,11.50
2023-01-01T02:42:01.041Z,11.10
2023-01-01T02:43:02.066Z,10.30
2023-01-01T02:44:30.482Z,9.70
2023-01-01T02:45:30.300Z,10.00
2023-01-01T02:46:30.528Z,11.30
2023-01-01T02:47:30.293Z,11.40
2023-01-01T02:48:30.348Z,11.40
2023-01-01T02:49:30.248Z,11.30
2023-01-01T02:50:30.280Z,11.20
2023-01-01T02:51:30.220Z,10.90
2023-01-01T02:52:30.320Z,11.30
2023-01-01T02:53:30.229Z,10.40
2023-01-01T02:55:39.531Z,10.10
2023-01-01T02:56:39.435Z,10.50
2023-01-01T02:57:39.577Z,10.60
2023-01-01T02:58:39.423Z,11.30
2023-01-01T03:00:02.521Z,11.10
2023-01-01T03:00:39.371Z,10.60
2023-01-01T03:01:40.650Z,10.50
2023-01-01T03:02:41.680Z,10.10
2023-01-01T03:03:40.365Z,10.40
2023-01-01T03:04:39.441Z,10.10
2023-01-01T03:05:39.310Z,10.60
2023-01-01T03:06:39.482Z,10.50
2023-01-01T03:07:39.284Z,10.10
2023-01-01T03:08:39.315Z,10.40
2023-01-01T03:09:39.277Z,10.30
2023-01-01T03:10:41.445Z,9.10
2023-01-01T03:11:39.236Z,9.50
2023-01-01T03:12:39.397Z,9.30
2023-01-01T03:13:39.204Z,9.80
2023-01-01T03:14:39.322Z,9.90
2023-01-01T03:15:39.245Z,9.80
2023-01-01T03:16:41.241Z,11.10
2023-01-01T03:17:39.164Z,10.80
2023-01-01T03:18:39.190Z,10.30
2023-01-01T03:19:39.133Z,10.80
2023-01-01T03:20:39.231Z,10.90
2023-01-01T03:21:39.115Z,11.00
2023-01-01T03:23:09.710Z,10.10
2023-01-01T03:24:09.864Z,10.40
2023-01-01T03:25:09.639Z,11.00
2023-01-01T03:26:09.762Z,10.40
2023-01-01T03:27:09.621Z,9.80
2023-01-01T03:28:11.791Z,9.90
2023-01-01T03:29:09.581Z,9.80
2023-01-01T03:30:09.732Z,10.20
2023-01-01T03:31:09.593Z,9.70
2023-01-01T03:32:09.669Z,10.40
2023-01-01T03:33:09.544Z,11.20
2023-01-01T03:36:28.369Z,10.70
2023-01-01T03:37:28.254Z,11.30
2023-01-01T03:38:28.455Z,10.30
2023-01-01T03:39:28.226Z,10.90
2023-01-01T03:40:28.256Z,9.70
2023-01-01T03:41:28.196Z,10.60
2023-01-01T03:42:28.376Z,9.90
2023-01-01T03:43:28.177Z,9.90
2023-01-01T03:44:28.258Z,9.60
2023-01-01T03:45:28.151Z,10.40
2023-01-01T03:46:29.358Z,11.00
2023-01-01T03:47:28.135Z,10.60
2023-01-01T03:48:28.212Z,11.40
2023-01-01T03:49:28.106Z,11.50
2023-01-01T03:50:28.263Z,10.90
2023-01-01T03:51:28.075Z,10.30
2023-01-01T03:52:29.272Z,10.60
2023-01-01T03:53:28.045Z,10.50
2023-01-01T03:54:28.085Z,10.10
2023-01-01T03:55:28.014Z,9.60
2023-01-01T03:56:28.171Z,9.60
2023-01-01T03:57:27.997Z,10.20
2023-01-01T03:58:49.133Z,9.50
2023-01-01T03:59:27.956Z,9.80
2023-01-01T04:00:28.120Z,10.20
2023-01-01T04:01:28.018Z,10.10
2023-01-01T04:02:28.052Z,10.20
2023-01-01T04:03:27.934Z,9.70
2023-01-01T04:04:27.961Z,9.10
2023-01-01T04:05:27.882Z,10.20
2023-01-01T04:06:27.995Z,9.90
2023-01-01T04:07:27.862Z,9.20
2023-01-01T04:08:28.092Z,10.70
2023-01-01T04:09:27.836Z,9.60
2023-01-01T04:10:48.862Z,10.30
2023-01-01T04:11:27.802Z,11.00
2023-01-01T04:12:27.902Z,11.30
2023-01-01T04:13:27.783Z,10.10
2023-01-01T04:14:29.012Z,10.90
2023-01-01T04:15:27.759Z,11.40
2023-01-01T04:16:28.868Z,10.50
2023-01-01T04:17:27.723Z,10.40
2023-01-01T04:18:27.914Z,10.50
2023-01-01T04:19:27.704Z,10.60
2023-01-01T04:20:29.740Z,10.00
2023-01-01T04:21:27.673Z,10.30
2023-01-01T04:22:27.777Z,10.10
2023-01-01T04:23:27.665Z,10.30
2023-01-01T04:24:27.721Z,10.70
2023-01-01T04:25:27.628Z,10.60
2023-01-01T04:26:28.825Z,10.90
2023-01-01T04:27:27.597Z,9.90
2023-01-01T04:28:27.781Z,9.80
2023-01-01T04:29:27.571Z,10.40
2023-01-01T04:30:27.613Z,10.20
2023-01-01T04:31:27.539Z,9.30
2023-01-01T04:32:27.613Z,9.50
2023-01-01T04:33:27.520Z,9.40
2023-01-01T04:34:27.580Z,9.30
2023-01-01T04:35:27.490Z,9.80
2023-01-01T04:36:27.620Z,9.60
2023-01-01T04:37:27.457Z,9.90
2023-01-01T04:38:27.507Z,10.50
2023-01-01T04:39:27.440Z,10.80
2023-01-01T04:40:27.503Z,10.40
2023-01-01T04:41:27.412Z,10.90
2023-01-01T04:42:27.533Z,10.00
2023-01-01T04:43:27.384Z,10.90
2023-01-01T04:44:27.445Z,11.70
2023-01-01T04:45:27.454Z,10.40
2023-01-01T04:46:27.499Z,11.20
2023-01-01T04:47:27.329Z,10.40
2023-01-01T04:48:27.441Z,10.90
2023-01-01T04:49:27.309Z,11.10
2023-01-01T04:50:27.422Z,10.10
2023-01-01T04:51:27.279Z,10.70
2023-01-01T04:52:27.420Z,10.00
2023-01-01T04:53:27.247Z,10.70
2023-01-01T04:54:27.343Z,11.00
2023-01-01T04:55:27.227Z,10.70
2023-01-01T04:56:28.448Z,12.00
2023-01-01T04:57:27.209Z,11.10
2023-01-01T04:58:27.309Z,11.20
2023-01-01T04:59:27.177Z,11.30
2023-01-01T05:00:27.248Z,10.30
2023-01-01T05:01:27.386Z,10.50
2023-01-01T05:02:28.356Z,10.50
2023-01-01T05:03:27.132Z,11.00
2023-01-01T05:04:27.226Z,10.60
2023-01-01T05:05:27.095Z,10.80
2023-01-01T05:06:27.160Z,10.60
2023-01-01T05:07:27.076Z,10.40
2023-01-01T05:08:27.140Z,10.80
2023-01-01T05:09:27.082Z,10.20
2023-01-01T05:10:27.117Z,10.30
2023-01-01T05:11:27.026Z,9.30
2023-01-01T05:12:27.157Z,10.80
2023-01-01T05:13:26.995Z,9.70
2023-01-01T05:14:27.050Z,9.90
2023-01-01T05:15:26.985Z,9.40
2023-01-01T05:16:27.093Z,10.10
2023-01-01T05:17:26.950Z,10.50
2023-01-01T05:18:27.070Z,10.70
2023-01-01T05:19:26.914Z,11.10
2023-01-01T05:20:27.055Z,11.20
2023-01-01T05:21:26.912Z,10.10
2023-01-01T05:22:27.035Z,10.70
2023-01-01T05:23:26.855Z,11.10
2023-01-01T05:24:26.965Z,10.60
2023-01-01T05:25:26.861Z,9.90
2023-01-01T05:26:27.879Z,9.80
2023-01-01T05:27:26.806Z,10.20
2023-01-01T05:28:26.935Z,10.20
2023-01-01T05:29:26.793Z,10.00
2023-01-01T05:30:26.875Z,10.70
2023-01-01T05:31:26.841Z,10.70
2023-01-01T05:32:26.966Z,10.70
2023-01-01T05:33:26.733Z,10.30
2023-01-01T05:34:26.755Z,10.90
2023-01-01T05:35:26.956Z,10.60
2023-01-01T05:36:26.784Z,10.20
2023-01-01T05:37:26.687Z,9.60
2023-01-01T05:38:26.764Z,9.70
2023-01-01T05:39:26.652Z,9.90
2023-01-01T05:40:26.754Z,10.70
2023-01-01T05:41:26.623Z,10.10
2023-01-01T05:42:26.795Z,10.10
2023-01-01T05:43:26.591Z,9.10
2023-01-01T05:44:27.710Z,10.60
2023-01-01T05:45:26.572Z,10.50
2023-01-01T05:46:26.655Z,10.50
2023-01-01T05:47:29.427Z,10.60
2023-01-01T05:48:26.695Z,10.60
2023-01-01T05:49:26.518Z,10.50
2023-01-01T05:50:29.852Z,9.80
2023-01-01T05:51:26.493Z,10.00
2023-01-01T05:52:27.165Z,10.50
2023-01-01T05:53:26.486Z,9.70
2023-01-01T05:54:26.506Z,10.60
2023-01-01T05:55:26.497Z,10.70
2023-01-01T05:56:28.534Z,10.80
2023-01-01T05:57:26.411Z,10.30
2023-01-01T05:58:26.572Z,10.60
2023-01-01T05:59:26.394Z,10.10
2023-01-01T06:00:26.506Z,9.50
2023-01-01T06:01:26.405Z,10.40
2023-01-01T06:02:28.450Z,9.90
2023-01-01T06:03:26.342Z,10.20
2023-01-01T06:04:26.404Z,10.00
2023-01-01T06:05:26.310Z,9.60
2023-01-01T06:06:26.410Z,9.40
2023-01-01T06:07:26.284Z,9.00
2023-01-01T06:08:26.402Z,9.50
2023-01-01T06:09:26.261Z,10.10
2023-01-01T06:10:26.385Z,9.30
2023-01-01T06:11:26.245Z,9.20
2023-01-01T06:12:26.311Z,9.70
2023-01-01T06:13:26.210Z,9.00
2023-01-01T06:14:26.302Z,9.30
2023-01-01T06:15:26.189Z,9.80
2023-01-01T06:16:26.437Z,10.20
2023-01-01T06:17:26.160Z,10.70
2023-01-01T06:18:26.329Z,11.50
2023-01-01T06:19:26.129Z,15.30
2023-01-01T06:20:26.217Z,14.90
2023-01-01T06:21:26.099Z,15.10
2023-01-01T06:22:26.191Z,12.80
2023-01-01T06:23:26.069Z,13.40
2023-01-01T06:24:27.149Z,13.90
2023-01-01T06:25:26.049Z,13.00
2023-01-01T06:26:26.220Z,13.70
2023-01-01T06:27:26.026Z,12.80
2023-01-01T06:28:26.213Z,13.50
2023-01-01T06:29:26.001Z,13.30
2023-01-01T06:30:47.133Z,14.30
2023-01-01T06:31:25.986Z,13.90
2023-01-01T06:32:26.130Z,13.00
2023-01-01T06:33:25.950Z,13.90
2023-01-01T06:34:26.115Z,14.50
2023-01-01T06:35:25.917Z,13.20
2023-01-01T06:36:26.066Z,12.70
2023-01-01T06:37:25.889Z,12.90
2023-01-01T06:38:26.048Z,12.60
2023-01-01T06:39:25.867Z,12.60
2023-01-01T06:40:25.887Z,11.60
2023-01-01T06:41:25.846Z,11.40
2023-01-01T06:42:31.981Z,12.10
2023-01-01T06:43:26.877Z,11.40
2023-01-01T06:44:25.815Z,11.80
2023-01-01T06:45:25.790Z,11.40
2023-01-01T06:46:26.015Z,11.80
2023-01-01T06:47:25.756Z,10.10
2023-01-01T06:48:26.776Z,10.90
2023-01-01T06:49:25.776Z,11.30
2023-01-01T06:50:25.790Z,10.60
2023-01-01T06:51:25.707Z,15.00
2023-01-01T06:52:25.825Z,12.00
2023-01-01T06:53:25.703Z,11.90
2023-01-01T06:54:46.800Z,11.10
2023-01-01T06:55:25.660Z,9.60
2023-01-01T06:56:25.800Z,9.20
2023-01-01T06:57:25.631Z,9.70
2023-01-01T06:58:25.725Z,10.60
2023-01-01T06:59:25.604Z,13.10
2023-01-01T07:00:25.706Z,11.50
2023-01-01T07:01:25.685Z,11.10
2023-01-01T07:02:25.955Z,12.10
2023-01-01T07:03:25.607Z,10.10
2023-01-01T07:04:25.745Z,10.70
2023-01-01T07:05:25.523Z,11.40
2023-01-01T07:06:25.723Z,10.60
2023-01-01T07:07:27.046Z,10.00
2023-01-01T07:08:25.604Z,11.10
2023-01-01T07:09:25.470Z,11.50
2023-01-01T07:10:27.634Z,10.70
2023-01-01T07:11:25.451Z,9.60
2023-01-01T07:12:25.624Z,10.00
2023-01-01T07:13:25.420Z,9.50
2023-01-01T07:14:25.636Z,9.30
2023-01-01T07:15:25.386Z,9.50
2023-01-01T07:16:27.577Z,9.70
2023-01-01T07:17:25.365Z,9.80
2023-01-01T07:18:25.432Z,10.40
2023-01-01T07:19:25.342Z,9.00
2023-01-01T07:20:25.411Z,9.10
2023-01-01T07:21:29.206Z,8.90
2023-01-01T07:22:25.294Z,8.70
2023-01-01T07:23:25.425Z,9.40
2023-01-01T07:24:25.300Z,8.70
2023-01-01T07:25:25.351Z,9.60
2023-01-01T07:26:25.246Z,8.80
2023-01-01T07:27:25.392Z,9.40
2023-01-01T07:28:25.247Z,8.20
2023-01-01T07:29:26.356Z,9.00
2023-01-01T07:30:25.209Z,8.40
2023-01-01T07:31:25.335Z,8.40
2023-01-01T07:32:25.176Z,8.60
2023-01-01T07:33:26.326Z,10.20
2023-01-01T07:34:25.141Z,10.00
2023-01-01T07:35:25.227Z,10.30
2023-01-01T07:36:25.141Z,9.20
2023-01-01T07:37:25.274Z,9.80
2023-01-01T07:38:25.084Z,9.00
2023-01-01T07:39:25.209Z,8.70
2023-01-01T07:40:25.061Z,9.10
2023-01-01T07:41:25.102Z,9.90
2023-01-01T07:42:25.049Z,10.80
2023-01-01T07:43:25.176Z,10.80
2023-01-01T07:44:25.019Z,11.60
2023-01-01T07:45:46.081Z,11.90
2023-01-01T07:46:25.014Z,12.20
2023-01-01T07:47:25.155Z,13.60
2023-01-01T07:48:24.991Z,13.10
2023-01-01T07:49:25.102Z,13.30
2023-01-01T07:50:24.957Z,13.90
2023-01-01T07:51:24.972Z,14.10
2023-01-01T07:52:24.906Z,14.50
2023-01-01T07:53:25.048Z,14.70
2023-01-01T07:54:24.896Z,14.10
2023-01-01T07:55:24.987Z,14.40
2023-01-01T07:56:24.848Z,12.80
2023-01-01T07:57:26.047Z,13.40
2023-01-01T07:58:24.819Z,14.30
2023-01-01T07:59:24.924Z,13.00
2023-01-01T08:00:24.817Z,13.40
2023-01-01T08:01:25.927Z,13.00
2023-01-01T08:02:24.899Z,13.40
2023-01-01T08:03:24.902Z,13.70
2023-01-01T08:04:24.747Z,12.60
2023-01-01T08:05:27.122Z,12.00
2023-01-01T08:06:24.736Z,13.60
2023-01-01T08:07:24.783Z,12.50
2023-01-01T08:08:24.708Z,14.00
2023-01-01T08:09:24.797Z,13.30
2023-01-01T08:10:24.671Z,12.80
2023-01-01T08:11:24.703Z,12.70
2023-01-01T08:12:24.678Z,13.90
2023-01-01T08:13:24.726Z,11.80
2023-01-01T08:14:24.618Z,11.50
2023-01-01T08:15:24.625Z,11.50
2023-01-01T08:16:24.688Z,11.80
2023-01-01T08:17:24.647Z,11.00
2023-01-01T08:18:24.582Z,11.50
2023-01-01T08:19:24.705Z,10.70
2023-01-01T08:20:24.549Z,10.90
2023-01-01T08:21:24.648Z,10.80
2023-01-01T08:22:24.514Z,10.40
2023-01-01T08:23:24.705Z,10.10
2023-01-01T08:24:24.508Z,10.80
2023-01-01T08:25:24.519Z,10.30
2023-01-01T08:26:24.463Z,10.60
2023-01-01T08:27:24.545Z,9.80
2023-01-01T08:28:24.453Z,10.60
2023-01-01T08:29:24.583Z,9.70
2023-01-01T08:30:24.614Z,9.10
2023-01-01T08:31:24.536Z,10.20
2023-01-01T08:32:24.529Z,10.40
2023-01-01T08:33:26.546Z,10.30
2023-01-01T08:34:24.356Z,10.90
2023-01-01T08:35:50.313Z,11.90
2023-01-01T08:36:25.324Z,10.80
2023-01-01T08:37:25.453Z,9.00
2023-01-01T08:38:24.299Z,9.40
2023-01-01T08:39:24.453Z,9.30
2023-01-01T08:40:24.272Z,9.40
2023-01-01T08:41:24.450Z,9.00
2023-01-01T08:42:24.248Z,10.00
2023-01-01T08:43:24.433Z,9.60
2023-01-01T08:44:24.224Z,9.40
2023-01-01T08:45:24.268Z,9.50
2023-01-01T08:46:24.216Z,9.00
2023-01-01T08:47:24.356Z,9.40
2023-01-01T08:48:30.416Z,8.60
2023-01-01T08:49:25.151Z,9.60
2023-01-01T08:50:25.225Z,9.60
2023-01-01T08:51:24.130Z,10.10
2023-01-01T08:52:24.230Z,10.40
2023-01-01T08:53:24.124Z,10.10
2023-01-01T08:54:24.267Z,10.00
2023-01-01T08:55:24.083Z,9.40
2023-01-01T08:56:24.210Z,8.90
2023-01-01T08:57:24.053Z,10.40
2023-01-01T08:58:25.166Z,10.00
2023-01-01T08:59:24.043Z,9.30
2023-01-01T09:00:47.149Z,9.50
2023-01-01T09:01:24.143Z,11.00
2023-01-01T09:02:24.355Z,10.40
2023-01-01T09:03:24.062Z,11.20
2023-01-01T09:04:24.149Z,12.40
2023-01-01T09:05:23.982Z,11.20
2023-01-01T09:06:24.095Z,12.00
2023-01-01T09:07:23.911Z,11.50
2023-01-01T09:08:24.020Z,10.90
2023-01-01T09:09:29.301Z,11.10
2023-01-01T09:10:24.912Z,12.40
2023-01-01T09:11:24.029Z,12.20
2023-01-01T09:12:23.872Z,11.00
2023-01-01T09:13:23.948Z,10.70
2023-01-01T09:14:23.842Z,11.10
2023-01-01T09:15:23.890Z,11.90
2023-01-01T09:16:23.878Z,11.60
2023-01-01T09:17:23.930Z,14.30
2023-01-01T09:18:23.772Z,12.70
2023-01-01T09:19:23.887Z,12.10
2023-01-01T09:20:23.737Z,13.00
2023-01-01T09:21:23.811Z,13.90
2023-01-01T09:22:23.744Z,15.40
2023-01-01T09:23:24.861Z,15.30
2023-01-01T09:24:23.688Z,15.10
2023-01-01T09:25:23.765Z,14.10
2023-01-01T09:26:23.676Z,14.30
2023-01-01T09:27:23.804Z,14.40
2023-01-01T09:28:26.011Z,14.90
2023-01-01T09:29:23.849Z,14.40
2023-01-01T09:30:23.609Z,14.10
2023-01-01T09:31:23.730Z,13.70
2023-01-01T09:32:23.577Z,12.30
2023-01-01T09:33:23.709Z,13.50
2023-01-01T09:34:23.572Z,13.30
2023-01-01T09:35:25.732Z,12.80
2023-01-01T09:36:23.526Z,12.10
2023-01-01T09:37:23.675Z,12.10
2023-01-01T09:38:23.511Z,12.40
2023-01-01T09:39:23.624Z,12.10
2023-01-01T09:40:23.509Z,12.10
2023-01-01T09:41:25.629Z,12.20
2023-01-01T09:42:23.445Z,11.90
2023-01-01T09:43:23.595Z,11.40
2023-01-01T09:44:23.426Z,12.20
2023-01-01T09:45:23.520Z,11.70
2023-01-01T09:46:29.553Z,12.20
2023-01-01T09:47:24.394Z,12.10
2023-01-01T09:48:24.445Z,11.20
2023-01-01T09:49:23.356Z,10.60
2023-01-01T09:50:23.478Z,11.00
2023-01-01T09:51:23.336Z,11.60
2023-01-01T09:52:23.543Z,11.00
2023-01-01T09:53:23.303Z,10.80
2023-01-01T09:54:23.424Z,10.60
2023-01-01T09:55:23.280Z,10.10
2023-01-01T09:56:23.327Z,10.30
2023-01-01T09:57:23.245Z,10.50
2023-01-01T09:58:23.353Z,11.60
2023-01-01T09:59:23.222Z,13.30
2023-01-01T10:01:32.771Z,12.70
2023-01-01T10:02:32.508Z,12.60
2023-01-01T10:03:32.595Z,12.80
2023-01-01T10:04:32.538Z,12.30
2023-01-01T10:06:41.878Z,13.30
2023-01-01T10:07:41.760Z,13.00
2023-01-01T10:08:41.920Z,11.70
2023-01-01T10:09:41.738Z,12.70
2023-01-01T10:11:03.839Z,11.90
2023-01-01T10:11:41.697Z,11.80
2023-01-01T10:12:41.869Z,11.20
2023-01-01T10:13:41.677Z,12.20
2023-01-01T10:14:41.757Z,11.80
2023-01-01T10:15:41.647Z,11.60
2023-01-01T10:16:41.785Z,12.10
2023-01-01T10:17:41.621Z,11.80
2023-01-01T10:18:41.775Z,12.00
2023-01-01T10:19:41.599Z,11.60
2023-01-01T10:20:41.776Z,11.90
2023-01-01T10:21:46.666Z,11.80
2023-01-01T10:22:42.568Z,11.90
2023-01-01T10:23:41.716Z,11.60
2023-01-01T10:24:41.542Z,11.30
2023-01-01T10:25:41.646Z,11.90
2023-01-01T10:26:41.542Z,11.10
2023-01-01T10:28:02.668Z,9.90
2023-01-01T10:28:41.483Z,10.00
2023-01-01T10:29:41.617Z,10.10
2023-01-01T10:30:41.474Z,10.60
2023-01-01T10:31:41.624Z,8.90
2023-01-01T10:32:41.465Z,9.30
2023-01-01T10:33:41.596Z,8.70
2023-01-01T10:34:41.401Z,9.60
2023-01-01T10:35:41.524Z,9.20
2023-01-01T10:36:41.384Z,9.60
2023-01-01T10:37:41.459Z,9.50
2023-01-01T10:38:41.365Z,10.10
2023-01-01T10:39:41.498Z,9.90
2023-01-01T10:40:41.327Z,9.50
2023-01-01T10:41:41.432Z,9.80
2023-01-01T10:42:41.296Z,8.90
2023-01-01T10:43:41.498Z,8.10
2023-01-01T10:44:41.285Z,8.40
2023-01-01T10:45:41.325Z,8.10
2023-01-01T10:46:41.245Z,7.20
2023-01-01T10:47:41.335Z,6.70
2023-01-01T10:48:41.221Z,7.30
2023-01-01T10:49:41.281Z,6.70
2023-01-01T10:50:41.205Z,6.70
2023-01-01T10:51:42.328Z,6.30
2023-01-01T10:52:41.233Z,7.10
2023-01-01T10:53:41.361Z,7.30
2023-01-01T10:54:41.152Z,7.60
2023-01-01T10:55:41.216Z,8.10
2023-01-01T10:56:41.152Z,7.90
2023-01-01T10:57:42.236Z,8.00
2023-01-01T10:58:41.085Z,8.30
2023-01-01T10:59:41.186Z,6.50
2023-01-01T11:00:41.058Z,6.00
2023-01-01T11:01:41.145Z,6.20
2023-01-01T11:02:41.142Z,5.90
2023-01-01T11:03:41.107Z,6.00
2023-01-01T11:04:41.057Z,6.10
2023-01-01T11:05:41.028Z,6.70
2023-01-01T11:06:40.980Z,6.60
2023-01-01T11:07:41.045Z,6.20
2023-01-01T11:08:41.044Z,6.30
2023-01-01T11:09:44.985Z,9.50
2023-01-01T11:10:41.932Z,10.60
2023-01-01T11:11:40.974Z,10.50
2023-01-01T11:13:41.907Z,11.30
2023-01-01T11:14:40.995Z,11.30
2023-01-01T11:15:40.865Z,11.20
2023-01-01T11:16:40.942Z,11.10
2023-01-01T11:17:40.849Z,11.60
2023-01-01T11:18:40.960Z,10.40
2023-01-01T11:19:44.382Z,11.20
2023-01-01T11:20:41.817Z,10.70
2023-01-01T11:21:40.836Z,11.40
2023-01-01T11:22:40.789Z,11.40
2023-01-01T11:23:40.856Z,11.30
2023-01-01T11:24:40.752Z,11.20
2023-01-01T11:25:40.816Z,11.70
2023-01-01T11:26:40.727Z,11.80
2023-01-01T11:27:40.786Z,11.00
2023-01-01T11:28:40.766Z,11.10
2023-01-01T11:29:40.793Z,11.50
2023-01-01T11:30:40.695Z,11.10
2023-01-01T11:31:40.780Z,11.50
2023-01-01T11:32:40.646Z,11.70
2023-01-01T11:33:40.722Z,11.50
2023-01-01T11:34:40.619Z,11.50
2023-01-01T11:35:40.651Z,11.70
2023-01-01T11:36:40.594Z,10.80
2023-01-01T11:37:40.695Z,11.50
2023-01-01T11:38:40.564Z,11.10
2023-01-01T11:39:40.665Z,10.40
2023-01-01T11:40:40.544Z,11.80
2023-01-01T11:41:40.565Z,10.80
2023-01-01T11:42:40.514Z,11.80
2023-01-01T11:43:40.532Z,11.30
2023-01-01T11:44:40.485Z,11.30
2023-01-01T11:45:40.512Z,10.90
2023-01-01T11:46:40.463Z,11.60
2023-01-01T11:47:40.517Z,11.90
2023-01-01T11:48:40.435Z,11.60
2023-01-01T11:49:40.493Z,11.10
2023-01-01T11:50:40.421Z,11.60
2023-01-01T11:51:40.453Z,11.40
2023-01-01T11:52:40.382Z,11.70
2023-01-01T11:53:40.464Z,11.90
2023-01-01T11:54:40.371Z,11.40
2023-01-01T11:55:40.424Z,11.30
2023-01-01T11:56:40.336Z,11.30
2023-01-01T11:57:40.404Z,11.30
2023-01-01T11:58:40.298Z,11.40
2023-01-01T11:59:40.401Z,11.10
2023-01-01T12:00:40.275Z,11.50
2023-01-01T12:01:40.457Z,11.40
2023-01-01T12:02:40.302Z,11.70
2023-01-01T12:03:40.463Z,11.90
2023-01-01T12:04:40.226Z,12.70
2023-01-01T12:05:40.235Z,13.80
2023-01-01T12:06:40.194Z,12.80
2023-01-01T12:07:40.301Z,13.20
2023-01-01T12:08:40.176Z,13.60
2023-01-01T12:09:40.274Z,13.50
2023-01-01T12:10:40.140Z,13.30
2023-01-01T12:11:40.180Z,12.20
2023-01-01T12:12:40.113Z,11.70
2023-01-01T12:13:40.144Z,12.20
2023-01-01T12:14:40.091Z,11.90
2023-01-01T12:15:40.159Z,11.70
2023-01-01T12:16:40.062Z,11.50
2023-01-01T12:17:40.124Z,11.60
2023-01-01T12:18:40.037Z,11.70
2023-01-01T12:19:40.086Z,11.80
2023-01-01T12:20:40.002Z,11.80
2023-01-01T12:21:40.047Z,11.40
2023-01-01T12:22:39.974Z,11.70
2023-01-01T12:23:40.072Z,12.00
2023-01-01T12:24:39.953Z,11.30
2023-01-01T12:25:40.043Z,11.30
2023-01-01T12:26:39.925Z,11.80
2023-01-01T12:27:39.995Z,11.80
2023-01-01T12:28:39.905Z,12.00
2023-01-01T12:29:39.896Z,11.30
2023-01-01T12:30:39.864Z,11.40
2023-01-01T12:31:39.999Z,11.50
2023-01-01T12:32:39.842Z,11.70
2023-01-01T12:33:39.930Z,11.80
2023-01-01T12:34:39.819Z,11.30
2023-01-01T12:35:39.843Z,11.40
2023-01-01T12:36:39.783Z,11.10
2023-01-01T12:37:39.912Z,11.40
2023-01-01T12:38:39.765Z,12.00
2023-01-01T12:39:39.763Z,11.20
2023-01-01T12:40:39.746Z,11.10
2023-01-01T12:41:39.773Z,11.20
2023-01-01T12:42:39.722Z,10.50
2023-01-01T12:43:39.751Z,11.20
2023-01-01T12:44:39.682Z,11.50
2023-01-01T12:45:39.711Z,10.90
2023-01-01T12:46:39.711Z,11.20
2023-01-01T12:47:39.722Z,11.30
2023-01-01T12:48:39.613Z,11.80
2023-01-01T12:49:39.685Z,11.80
2023-01-01T12:50:39.606Z,10.90
2023-01-01T12:51:39.651Z,11.40
2023-01-01T12:52:39.563Z,11.90
2023-01-01T12:53:39.662Z,11.70
2023-01-01T12:54:39.550Z,11.40
2023-01-01T12:55:39.631Z,11.60
2023-01-01T12:56:39.513Z,11.90
2023-01-01T12:57:39.607Z,12.00
2023-01-01T12:58:39.494Z,12.70
2023-01-01T12:59:39.514Z,11.90
2023-01-01T13:00:39.467Z,12.90
2023-01-01T13:01:39.742Z,12.20
2023-01-01T13:02:39.508Z,12.60
2023-01-01T13:04:00.528Z,12.80
2023-01-01T13:04:39.403Z,13.90
2023-01-01T13:05:39.443Z,13.80
2023-01-01T13:06:39.390Z,13.30